sensor_id;sensor_type;location;lat;lon;timestamp;pressure;altitude;pressure_sealevel;temperature;humidity
73101;BME280;61288;53.446;-2.266;2023-07-22T00:01:26;99881.50;;;13.46;100.00
73101;BME280;61288;53.446;-2.266;2023-07-22T00:03:51;99878.31;;;13.41;100.00
73101;BME280;61288;53.446;-2.266;2023-07-22T00:06:17;99882.91;;;13.37;100.00
73101;BME280;61288;53.446;-2.266;2023-07-22T00:08:42;99877.38;;;13.29;100.00
73101;BME280;61288;53.446;-2.266;2023-07-22T00:11:08;99883.31;;;13.31;100.00
73101;BME280;61288;53.446;-2.266;2023-07-22T00:13:34;99880.19;;;13.26;100.00
73101;BME280;61288;53.446;-2.266;2023-07-22T00:16:00;99880.22;;;13.11;100.00
73101;BME280;61288;53.446;-2.266;2023-07-22T00:18:29;99877.81;;;13.08;100.00
73101;BME280;61288;53.446;-2.266;2023-07-22T00:20:56;99895.16;;;12.95;100.00
73101;BME280;61288;53.446;-2.266;2023-07-22T00:23:22;99914.84;;;12.84;100.00
73101;BME280;61288;53.446;-2.266;2023-07-22T00:25:47;99914.84;;;12.84;100.00
73101;BME280;61288;53.446;-2.266;2023-07-22T00:28:18;99923.69;;;12.82;100.00
73101;BME280;61288;53.446;-2.266;2023-07-22T00:30:44;99900.38;;;12.80;100.00
73101;BME280;61288;53.446;-2.266;2023-07-22T00:33:09;99905.69;;;12.79;100.00
73101;BME280;61288;53.446;-2.266;2023-07-22T00:35:35;99895.66;;;12.73;100.00
73101;BME280;61288;53.446;-2.266;2023-07-22T00:38:01;99885.25;;;12.73;100.00
73101;BME280;61288;53.446;-2.266;2023-07-22T00:40:27;99889.44;;;12.75;100.00
73101;BME280;61288;53.446;-2.266;2023-07-22T00:42:53;99864.19;;;12.77;100.00
73101;BME280;61288;53.446;-2.266;2023-07-22T00:45:18;99872.56;;;12.68;100.00
73101;BME280;61288;53.446;-2.266;2023-07-22T00:47:44;99867.56;;;12.65;100.00
73101;BME280;61288;53.446;-2.266;2023-07-22T00:50:10;99868.50;;;12.64;100.00
73101;BME280;61288;53.446;-2.266;2023-07-22T00:52:37;99864.13;;;12.64;100.00
73101;BME280;61288;53.446;-2.266;2023-07-22T00:55:04;99857.25;;;12.63;100.00
73101;BME280;61288;53.446;-2.266;2023-07-22T00:57:30;99854.44;;;12.66;100.00
73101;BME280;61288;53.446;-2.266;2023-07-22T00:59:56;99843.97;;;12.68;100.00
73101;BME280;61288;53.446;-2.266;2023-07-22T01:02:22;99834.59;;;12.65;100.00
73101;BME280;61288;53.446;-2.266;2023-07-22T01:04:49;99835.53;;;12.64;100.00
73101;BME280;61288;53.446;-2.266;2023-07-22T01:07:26;99816.78;;;12.59;100.00
73101;BME280;61288;53.446;-2.266;2023-07-22T01:09:56;99809.94;;;12.58;100.00
73101;BME280;61288;53.446;-2.266;2023-07-22T01:12:28;99793.69;;;12.54;100.00
73101;BME280;61288;53.446;-2.266;2023-07-22T01:14:53;99810.00;;;12.56;100.00
73101;BME280;61288;53.446;-2.266;2023-07-22T01:17:23;99784.88;;;12.57;100.00
73101;BME280;61288;53.446;-2.266;2023-07-22T01:19:50;99787.03;;;12.50;100.00
73101;BME280;61288;53.446;-2.266;2023-07-22T01:22:16;99764.88;;;12.45;100.00
73101;BME280;61288;53.446;-2.266;2023-07-22T01:24:43;99695.84;;;12.40;100.00
73101;BME280;61288;53.446;-2.266;2023-07-22T01:27:09;99702.91;;;12.38;100.00
73101;BME280;61288;53.446;-2.266;2023-07-22T01:29:35;99703.22;;;12.34;100.00
73101;BME280;61288;53.446;-2.266;2023-07-22T01:32:01;99695.31;;;12.35;100.00
73101;BME280;61288;53.446;-2.266;2023-07-22T01:34:30;99694.56;;;12.33;100.00
73101;BME280;61288;53.446;-2.266;2023-07-22T01:36:57;99673.78;;;12.33;100.00
73101;BME280;61288;53.446;-2.266;2023-07-22T01:39:26;99663.50;;;12.32;100.00
73101;BME280;61288;53.446;-2.266;2023-07-22T01:41:52;99648.00;;;12.30;100.00
73101;BME280;61288;53.446;-2.266;2023-07-22T01:44:18;99621.22;;;12.30;100.00
73101;BME280;61288;53.446;-2.266;2023-07-22T01:46:45;99604.91;;;12.27;100.00
73101;BME280;61288;53.446;-2.266;2023-07-22T01:49:12;99588.47;;;12.27;100.00
73101;BME280;61288;53.446;-2.266;2023-07-22T01:51:38;99574.75;;;12.25;100.00
73101;BME280;61288;53.446;-2.266;2023-07-22T01:54:07;99554.81;;;12.25;100.00
73101;BME280;61288;53.446;-2.266;2023-07-22T01:56:35;99548.78;;;12.25;100.00
73101;BME280;61288;53.446;-2.266;2023-07-22T01:59:01;99547.13;;;12.24;100.00
73101;BME280;61288;53.446;-2.266;2023-07-22T02:01:27;99532.47;;;12.23;100.00
73101;BME280;61288;53.446;-2.266;2023-07-22T02:03:54;99530.81;;;12.22;100.00
73101;BME280;61288;53.446;-2.266;2023-07-22T02:06:21;99517.91;;;12.20;100.00
73101;BME280;61288;53.446;-2.266;2023-07-22T02:08:48;99509.19;;;12.21;100.00
73101;BME280;61288;53.446;-2.266;2023-07-22T02:11:13;99495.19;;;12.24;100.00
73101;BME280;61288;53.446;-2.266;2023-07-22T02:13:39;99486.56;;;12.23;100.00
73101;BME280;61288;53.446;-2.266;2023-07-22T02:16:05;99480.41;;;12.24;100.00
73101;BME280;61288;53.446;-2.266;2023-07-22T02:18:31;99484.88;;;12.22;100.00
73101;BME280;61288;53.446;-2.266;2023-07-22T02:20:57;99475.44;;;12.21;100.00
73101;BME280;61288;53.446;-2.266;2023-07-22T02:23:24;99472.03;;;12.21;100.00
73101;BME280;61288;53.446;-2.266;2023-07-22T02:25:50;99465.97;;;12.20;100.00
73101;BME280;61288;53.446;-2.266;2023-07-22T02:28:17;99462.44;;;12.21;100.00
73101;BME280;61288;53.446;-2.266;2023-07-22T02:30:48;99451.13;;;12.22;100.00
73101;BME280;61288;53.446;-2.266;2023-07-22T02:33:16;99444.19;;;12.23;100.00
73101;BME280;61288;53.446;-2.266;2023-07-22T02:35:45;99426.81;;;12.23;100.00
73101;BME280;61288;53.446;-2.266;2023-07-22T02:38:10;99431.00;;;12.26;100.00
73101;BME280;61288;53.446;-2.266;2023-07-22T02:40:39;99431.00;;;12.26;100.00
73101;BME280;61288;53.446;-2.266;2023-07-22T02:43:05;99427.53;;;12.25;100.00
73101;BME280;61288;53.446;-2.266;2023-07-22T02:45:35;99430.06;;;12.27;100.00
73101;BME280;61288;53.446;-2.266;2023-07-22T02:48:02;99423.19;;;12.26;100.00
73101;BME280;61288;53.446;-2.266;2023-07-22T02:50:28;99433.78;;;12.23;100.00
73101;BME280;61288;53.446;-2.266;2023-07-22T02:52:54;99430.25;;;12.24;100.00
73101;BME280;61288;53.446;-2.266;2023-07-22T02:55:20;99424.22;;;12.23;100.00
73101;BME280;61288;53.446;-2.266;2023-07-22T02:57:47;99419.16;;;12.22;100.00
73101;BME280;61288;53.446;-2.266;2023-07-22T03:00:15;99420.91;;;12.21;100.00
73101;BME280;61288;53.446;-2.266;2023-07-22T03:02:54;99400.97;;;12.22;100.00
73101;BME280;61288;53.446;-2.266;2023-07-22T03:05:27;99411.25;;;12.23;100.00
73101;BME280;61288;53.446;-2.266;2023-07-22T03:07:53;99404.28;;;12.24;100.00
73101;BME280;61288;53.446;-2.266;2023-07-22T03:10:19;99403.34;;;12.25;100.00
73101;BME280;61288;53.446;-2.266;2023-07-22T03:12:44;99394.72;;;12.24;100.00
73101;BME280;61288;53.446;-2.266;2023-07-22T03:15:10;99395.56;;;12.25;100.00
73101;BME280;61288;53.446;-2.266;2023-07-22T03:17:39;99401.78;;;12.22;100.00
73101;BME280;61288;53.446;-2.266;2023-07-22T03:20:07;99401.78;;;12.22;100.00
73101;BME280;61288;53.446;-2.266;2023-07-22T03:22:53;99397.31;;;12.24;100.00
73101;BME280;61288;53.446;-2.266;2023-07-22T03:25:20;99388.00;;;12.22;100.00
73101;BME280;61288;53.446;-2.266;2023-07-22T03:27:45;99377.81;;;12.19;100.00
73101;BME280;61288;53.446;-2.266;2023-07-22T03:30:21;99378.63;;;12.19;100.00
73101;BME280;61288;53.446;-2.266;2023-07-22T03:32:47;99363.88;;;12.20;100.00
73101;BME280;61288;53.446;-2.266;2023-07-22T03:35:16;99361.38;;;12.18;100.00
73101;BME280;61288;53.446;-2.266;2023-07-22T03:37:45;99363.16;;;12.18;100.00
73101;BME280;61288;53.446;-2.266;2023-07-22T03:40:10;99353.00;;;12.15;100.00
73101;BME280;61288;53.446;-2.266;2023-07-22T03:42:55;99355.69;;;12.13;100.00
73101;BME280;61288;53.446;-2.266;2023-07-22T03:45:22;99353.00;;;12.15;100.00
73101;BME280;61288;53.446;-2.266;2023-07-22T03:47:52;99352.28;;;12.12;100.00
73101;BME280;61288;53.446;-2.266;2023-07-22T03:50:18;99352.44;;;12.09;100.00
73101;BME280;61288;53.446;-2.266;2023-07-22T03:52:44;99345.59;;;12.08;100.00
73101;BME280;61288;53.446;-2.266;2023-07-22T03:55:11;99356.94;;;12.07;100.00
73101;BME280;61288;53.446;-2.266;2023-07-22T03:57:36;99357.78;;;12.08;100.00
73101;BME280;61288;53.446;-2.266;2023-07-22T04:00:03;99351.72;;;12.07;100.00
73101;BME280;61288;53.446;-2.266;2023-07-22T04:02:30;99346.75;;;12.04;100.00
73101;BME280;61288;53.446;-2.266;2023-07-22T04:04:56;99348.75;;;12.01;100.00
73101;BME280;61288;53.446;-2.266;2023-07-22T04:07:22;99348.94;;;11.97;100.00
73101;BME280;61288;53.446;-2.266;2023-07-22T04:09:48;99348.00;;;11.98;100.00
73101;BME280;61288;53.446;-2.266;2023-07-22T04:12:14;99347.28;;;11.96;100.00
73101;BME280;61288;53.446;-2.266;2023-07-22T04:14:39;99346.53;;;11.94;100.00
73101;BME280;61288;53.446;-2.266;2023-07-22T04:17:05;99344.88;;;11.93;100.00
73101;BME280;61288;53.446;-2.266;2023-07-22T04:19:31;99340.59;;;11.92;100.00
73101;BME280;61288;53.446;-2.266;2023-07-22T04:21:57;99339.78;;;11.92;100.00
73101;BME280;61288;53.446;-2.266;2023-07-22T04:24:30;99337.41;;;11.89;100.00
73101;BME280;61288;53.446;-2.266;2023-07-22T04:26:57;99332.22;;;11.89;100.00
73101;BME280;61288;53.446;-2.266;2023-07-22T04:29:23;99335.00;;;11.85;100.00
73101;BME280;61288;53.446;-2.266;2023-07-22T04:31:49;99329.91;;;11.84;100.00
73101;BME280;61288;53.446;-2.266;2023-07-22T04:34:14;99326.00;;;11.78;100.00
73101;BME280;61288;53.446;-2.266;2023-07-22T04:36:41;99329.31;;;11.80;100.00
73101;BME280;61288;53.446;-2.266;2023-07-22T04:39:06;99327.66;;;11.79;100.00
73101;BME280;61288;53.446;-2.266;2023-07-22T04:41:33;99317.28;;;11.79;100.00
73101;BME280;61288;53.446;-2.266;2023-07-22T04:43:58;99311.97;;;11.81;100.00
73101;BME280;61288;53.446;-2.266;2023-07-22T04:46:30;99306.69;;;11.82;100.00
73101;BME280;61288;53.446;-2.266;2023-07-22T04:48:55;99295.38;;;11.83;100.00
73101;BME280;61288;53.446;-2.266;2023-07-22T04:51:22;99292.03;;;11.81;100.00
73101;BME280;61288;53.446;-2.266;2023-07-22T04:53:47;99293.69;;;11.82;100.00
73101;BME280;61288;53.446;-2.266;2023-07-22T04:56:13;99288.50;;;11.82;100.00
73101;BME280;61288;53.446;-2.266;2023-07-22T04:58:39;99285.19;;;11.80;100.00
73101;BME280;61288;53.446;-2.266;2023-07-22T05:01:04;99275.75;;;11.79;100.00
73101;BME280;61288;53.446;-2.266;2023-07-22T05:03:30;99273.97;;;11.80;100.00
73101;BME280;61288;53.446;-2.266;2023-07-22T05:05:56;99268.06;;;11.78;100.00
73101;BME280;61288;53.446;-2.266;2023-07-22T05:08:23;99269.72;;;11.79;100.00
73101;BME280;61288;53.446;-2.266;2023-07-22T05:10:48;99270.75;;;11.76;100.00
73101;BME280;61288;53.446;-2.266;2023-07-22T05:13:14;99265.56;;;11.76;100.00
73101;BME280;61288;53.446;-2.266;2023-07-22T05:15:42;99264.66;;;11.77;100.00
73101;BME280;61288;53.446;-2.266;2023-07-22T05:18:07;99268.25;;;11.75;100.00
73101;BME280;61288;53.446;-2.266;2023-07-22T05:20:33;99263.88;;;11.75;100.00
73101;BME280;61288;53.446;-2.266;2023-07-22T05:22:58;99258.69;;;11.75;100.00
73101;BME280;61288;53.446;-2.266;2023-07-22T05:25:24;99245.63;;;11.77;100.00
73101;BME280;61288;53.446;-2.266;2023-07-22T05:27:49;99249.16;;;11.76;100.00
73101;BME280;61288;53.446;-2.266;2023-07-22T05:30:16;99242.31;;;11.75;100.00
73101;BME280;61288;53.446;-2.266;2023-07-22T05:32:41;99232.88;;;11.74;100.00
73101;BME280;61288;53.446;-2.266;2023-07-22T05:35:10;99225.81;;;11.76;100.00
73101;BME280;61288;53.446;-2.266;2023-07-22T05:37:36;99218.03;;;11.76;100.00
73101;BME280;61288;53.446;-2.266;2023-07-22T05:40:02;99202.47;;;11.76;100.00
73101;BME280;61288;53.446;-2.266;2023-07-22T05:42:28;99188.44;;;11.78;100.00
73101;BME280;61288;53.446;-2.266;2023-07-22T05:44:56;99184.19;;;11.77;100.00
73101;BME280;61288;53.446;-2.266;2023-07-22T05:47:22;99178.06;;;11.78;100.00
73101;BME280;61288;53.446;-2.266;2023-07-22T05:49:48;99171.94;;;11.79;100.00
73101;BME280;61288;53.446;-2.266;2023-07-22T05:52:13;99159.91;;;11.78;100.00
73101;BME280;61288;53.446;-2.266;2023-07-22T05:54:41;99157.19;;;11.80;100.00
73101;BME280;61288;53.446;-2.266;2023-07-22T05:57:06;99150.34;;;11.79;100.00
73101;BME280;61288;53.446;-2.266;2023-07-22T05:59:32;99174.53;;;11.79;100.00
73101;BME280;61288;53.446;-2.266;2023-07-22T06:01:57;99190.84;;;11.81;100.00
73101;BME280;61288;53.446;-2.266;2023-07-22T06:04:23;99198.63;;;11.81;100.00
73101;BME280;61288;53.446;-2.266;2023-07-22T06:06:48;99213.03;;;11.85;100.00
73101;BME280;61288;53.446;-2.266;2023-07-22T06:09:17;99219.88;;;11.87;100.00
73101;BME280;61288;53.446;-2.266;2023-07-22T06:11:42;99226.72;;;11.88;100.00
73101;BME280;61288;53.446;-2.266;2023-07-22T06:14:08;99228.16;;;11.92;100.00
73101;BME280;61288;53.446;-2.266;2023-07-22T06:16:33;99224.63;;;11.93;100.00
73101;BME280;61288;53.446;-2.266;2023-07-22T06:18:59;99227.00;;;11.96;100.00
73101;BME280;61288;53.446;-2.266;2023-07-22T06:21:24;99235.53;;;11.98;100.00
73101;BME280;61288;53.446;-2.266;2023-07-22T06:23:50;99239.78;;;11.99;100.00
73101;BME280;61288;53.446;-2.266;2023-07-22T06:26:20;99239.06;;;11.97;100.00
73101;BME280;61288;53.446;-2.266;2023-07-22T06:28:46;99265.75;;;11.99;100.00
73101;BME280;61288;53.446;-2.266;2023-07-22T06:31:12;99277.06;;;11.98;100.00
73101;BME280;61288;53.446;-2.266;2023-07-22T06:33:47;99287.44;;;11.98;100.00
73101;BME280;61288;53.446;-2.266;2023-07-22T06:36:16;99287.44;;;11.98;100.00
73101;BME280;61288;53.446;-2.266;2023-07-22T06:38:43;99289.94;;;11.99;100.00
73101;BME280;61288;53.446;-2.266;2023-07-22T06:41:16;99295.94;;;12.00;100.00
73101;BME280;61288;53.446;-2.266;2023-07-22T06:43:43;101371.56;;;11.99;100.00
73101;BME280;61288;53.446;-2.266;2023-07-22T06:46:08;101406.19;;;11.99;100.00
73101;BME280;61288;53.446;-2.266;2023-07-22T06:48:34;101414.81;;;12.00;100.00
73101;BME280;61288;53.446;-2.266;2023-07-22T06:51:00;101422.59;;;12.00;100.00
73101;BME280;61288;53.446;-2.266;2023-07-22T06:53:26;101423.50;;;11.99;100.00
73101;BME280;61288;53.446;-2.266;2023-07-22T06:55:52;101431.28;;;12.01;100.00
73101;BME280;61288;53.446;-2.266;2023-07-22T06:58:24;101430.38;;;12.02;100.00
73101;BME280;61288;53.446;-2.266;2023-07-22T07:00:53;101437.28;;;12.03;100.00
73101;BME280;61288;53.446;-2.266;2023-07-22T07:03:19;101446.78;;;12.02;100.00
73101;BME280;61288;53.446;-2.266;2023-07-22T07:05:52;101446.78;;;12.02;100.00
73101;BME280;61288;53.446;-2.266;2023-07-22T07:08:22;101446.78;;;12.02;100.00
73101;BME280;61288;53.446;-2.266;2023-07-22T07:10:49;101447.66;;;12.03;100.00
73101;BME280;61288;53.446;-2.266;2023-07-22T07:13:14;101461.47;;;12.03;100.00
73101;BME280;61288;53.446;-2.266;2023-07-22T07:15:40;101474.47;;;12.03;100.00
73101;BME280;61288;53.446;-2.266;2023-07-22T07:18:05;101468.44;;;12.03;100.00
73101;BME280;61288;53.446;-2.266;2023-07-22T07:20:31;101475.31;;;12.04;100.00
73101;BME280;61288;53.446;-2.266;2023-07-22T07:22:56;101482.31;;;12.02;100.00
73101;BME280;61288;53.446;-2.266;2023-07-22T07:25:22;101481.47;;;12.01;100.00
73101;BME280;61288;53.446;-2.266;2023-07-22T07:27:48;101487.53;;;12.02;100.00
73101;BME280;61288;53.446;-2.266;2023-07-22T07:30:38;101481.47;;;12.01;100.00
73101;BME280;61288;53.446;-2.266;2023-07-22T07:33:04;101484.84;;;12.03;100.00
73101;BME280;61288;53.446;-2.266;2023-07-22T07:35:29;101490.03;;;12.03;100.00
73101;BME280;61288;53.446;-2.266;2023-07-22T07:37:55;101499.53;;;12.04;100.00
73101;BME280;61288;53.446;-2.266;2023-07-22T07:40:25;101537.59;;;12.05;100.00
73101;BME280;61288;53.446;-2.266;2023-07-22T07:42:54;101561.88;;;12.04;100.00
73101;BME280;61288;53.446;-2.266;2023-07-22T07:45:20;102005.19;;;12.05;100.00
73101;BME280;61288;53.446;-2.266;2023-07-22T07:47:46;102031.97;;;12.07;100.00
73101;BME280;61288;53.446;-2.266;2023-07-22T07:50:20;102034.56;;;12.09;100.00
73101;BME280;61288;53.446;-2.266;2023-07-22T07:52:46;102040.56;;;12.11;100.00
73101;BME280;61288;53.446;-2.266;2023-07-22T07:55:12;102035.22;;;12.17;100.00
73101;BME280;61288;53.446;-2.266;2023-07-22T07:57:40;102037.78;;;12.19;100.00
73101;BME280;61288;53.446;-2.266;2023-07-22T08:00:06;102006.59;;;12.19;100.00
73101;BME280;61288;53.446;-2.266;2023-07-22T08:02:34;102020.44;;;12.19;100.00
73101;BME280;61288;53.446;-2.266;2023-07-22T08:05:01;102030.78;;;12.21;100.00
73101;BME280;61288;53.446;-2.266;2023-07-22T08:07:27;102039.41;;;12.23;100.00
73101;BME280;61288;53.446;-2.266;2023-07-22T08:09:53;102045.38;;;12.26;100.00
73101;BME280;61288;53.446;-2.266;2023-07-22T08:12:18;102062.59;;;12.31;100.00
73101;BME280;61288;53.446;-2.266;2023-07-22T08:14:47;102061.72;;;12.30;100.00
73101;BME280;61288;53.446;-2.266;2023-07-22T08:17:12;102064.31;;;12.32;100.00
73101;BME280;61288;53.446;-2.266;2023-07-22T08:19:37;102065.94;;;12.34;100.00
73101;BME280;61288;53.446;-2.266;2023-07-22T08:22:03;102073.66;;;12.37;100.00
73101;BME280;61288;53.446;-2.266;2023-07-22T08:24:29;102083.16;;;12.38;100.00
73101;BME280;61288;53.446;-2.266;2023-07-22T08:26:55;102082.25;;;12.41;100.00
73101;BME280;61288;53.446;-2.266;2023-07-22T08:29:23;102096.94;;;12.42;100.00
73101;BME280;61288;53.446;-2.266;2023-07-22T08:31:48;102090.88;;;12.43;100.00
73101;BME280;61288;53.446;-2.266;2023-07-22T08:34:14;102090.88;;;12.43;100.00
73101;BME280;61288;53.446;-2.266;2023-07-22T08:36:43;102096.03;;;12.45;100.00
73101;BME280;61288;53.446;-2.266;2023-07-22T08:39:10;102094.28;;;12.45;100.00
73101;BME280;61288;53.446;-2.266;2023-07-22T08:41:39;102101.22;;;12.45;100.00
73101;BME280;61288;53.446;-2.266;2023-07-22T08:44:14;102095.97;;;12.46;100.00
73101;BME280;61288;53.446;-2.266;2023-07-22T08:46:45;102101.19;;;12.46;100.00
73101;BME280;61288;53.446;-2.266;2023-07-22T08:49:12;102124.56;;;12.46;100.00
73101;BME280;61288;53.446;-2.266;2023-07-22T08:51:39;102127.97;;;12.48;100.00
73101;BME280;61288;53.446;-2.266;2023-07-22T08:54:05;102129.75;;;12.48;100.00
73101;BME280;61288;53.446;-2.266;2023-07-22T08:56:34;102127.97;;;12.48;100.00
73101;BME280;61288;53.446;-2.266;2023-07-22T08:59:00;102142.75;;;12.48;100.00
73101;BME280;61288;53.446;-2.266;2023-07-22T09:01:26;102138.34;;;12.50;100.00
73101;BME280;61288;53.446;-2.266;2023-07-22T09:04:00;102140.06;;;12.51;100.00
73101;BME280;61288;53.446;-2.266;2023-07-22T09:06:26;102157.31;;;12.53;100.00
73101;BME280;61288;53.446;-2.266;2023-07-22T09:08:51;102155.53;;;12.55;100.00
73101;BME280;61288;53.446;-2.266;2023-07-22T09:11:24;102158.09;;;12.57;100.00
73101;BME280;61288;53.446;-2.266;2023-07-22T09:13:51;102165.81;;;12.60;100.00
73101;BME280;61288;53.446;-2.266;2023-07-22T09:16:18;102172.72;;;12.63;100.00
73101;BME280;61288;53.446;-2.266;2023-07-22T09:18:46;102182.22;;;12.62;100.00
73101;BME280;61288;53.446;-2.266;2023-07-22T09:21:12;102184.81;;;12.64;100.00
73101;BME280;61288;53.446;-2.266;2023-07-22T09:23:39;102192.56;;;12.65;100.00
73101;BME280;61288;53.446;-2.266;2023-07-22T09:26:28;102197.72;;;12.67;100.00
73101;BME280;61288;53.446;-2.266;2023-07-22T09:28:59;102213.25;;;12.70;100.00
73101;BME280;61288;53.446;-2.266;2023-07-22T09:31:28;102219.28;;;12.70;100.00
73101;BME280;61288;53.446;-2.266;2023-07-22T09:33:53;102219.22;;;12.74;100.00
73101;BME280;61288;53.446;-2.266;2023-07-22T09:36:20;102215.78;;;12.73;100.00
73101;BME280;61288;53.446;-2.266;2023-07-22T09:39:00;102209.63;;;12.76;100.00
73101;BME280;61288;53.446;-2.266;2023-07-22T09:41:28;102234.69;;;12.80;100.00
73101;BME280;61288;53.446;-2.266;2023-07-22T09:44:02;101996.09;;;12.85;100.00
73101;BME280;61288;53.446;-2.266;2023-07-22T09:46:32;102097.41;;;12.90;100.00
73101;BME280;61288;53.446;-2.266;2023-07-22T09:49:05;102169.31;;;12.94;100.00
73101;BME280;61288;53.446;-2.266;2023-07-22T09:51:40;106813.31;;;12.94;100.00
73101;BME280;61288;53.446;-2.266;2023-07-22T09:54:06;112383.22;;;12.94;100.00
73101;BME280;61288;53.446;-2.266;2023-07-22T09:56:43;112735.78;;;12.97;100.00
73101;BME280;61288;53.446;-2.266;2023-07-22T09:59:13;113043.59;;;12.97;100.00
73101;BME280;61288;53.446;-2.266;2023-07-22T10:01:39;113062.56;;;12.96;100.00
73101;BME280;61288;53.446;-2.266;2023-07-22T10:04:07;113142.00;;;12.98;100.00
73101;BME280;61288;53.446;-2.266;2023-07-22T10:06:41;113117.56;;;12.97;100.00
73101;BME280;61288;53.446;-2.266;2023-07-22T10:09:10;113123.75;;;12.98;100.00
73101;BME280;61288;53.446;-2.266;2023-07-22T10:11:47;113195.81;;;13.03;100.00
73101;BME280;61288;53.446;-2.266;2023-07-22T10:14:16;113527.16;;;13.09;100.00
73101;BME280;61288;53.446;-2.266;2023-07-22T10:16:42;114643.38;;;13.14;100.00
73101;BME280;61288;53.446;-2.266;2023-07-22T10:19:10;115015.31;;;13.16;100.00
73101;BME280;61288;53.446;-2.266;2023-07-22T10:21:37;115080.16;;;13.19;100.00
73101;BME280;61288;53.446;-2.266;2023-07-22T10:24:03;115281.50;;;13.20;100.00
73101;BME280;61288;53.446;-2.266;2023-07-22T10:26:55;115325.91;;;13.20;100.00
73101;BME280;61288;53.446;-2.266;2023-07-22T10:29:21;115295.38;;;13.15;100.00
73101;BME280;61288;53.446;-2.266;2023-07-22T10:31:46;115310.34;;;13.16;100.00
73101;BME280;61288;53.446;-2.266;2023-07-22T10:34:21;115298.94;;;13.15;100.00
73101;BME280;61288;53.446;-2.266;2023-07-22T10:36:49;115284.94;;;13.15;100.00
73101;BME280;61288;53.446;-2.266;2023-07-22T10:39:33;115259.75;;;13.15;100.00
73101;BME280;61288;53.446;-2.266;2023-07-22T10:42:03;115227.50;;;13.15;100.00
73101;BME280;61288;53.446;-2.266;2023-07-22T10:44:33;115203.31;;;13.16;100.00
73101;BME280;61288;53.446;-2.266;2023-07-22T10:47:07;115179.38;;;13.19;100.00
73101;BME280;61288;53.446;-2.266;2023-07-22T10:49:45;115169.47;;;13.22;100.00
73101;BME280;61288;53.446;-2.266;2023-07-22T10:52:12;115123.72;;;13.24;100.00
73101;BME280;61288;53.446;-2.266;2023-07-22T10:54:39;115092.28;;;13.28;100.00
73101;BME280;61288;53.446;-2.266;2023-07-22T10:59:52;114932.31;;;13.29;100.00
73101;BME280;61288;53.446;-2.266;2023-07-22T11:02:28;114839.78;;;13.33;100.00
73101;BME280;61288;53.446;-2.266;2023-07-22T11:05:16;114844.16;;;13.38;100.00
73101;BME280;61288;53.446;-2.266;2023-07-22T11:07:44;114758.13;;;13.43;100.00
73101;BME280;61288;53.446;-2.266;2023-07-22T11:10:19;114754.22;;;13.51;100.00
73101;BME280;61288;53.446;-2.266;2023-07-22T11:12:45;114855.25;;;13.56;100.00
73101;BME280;61288;53.446;-2.266;2023-07-22T11:15:11;114787.16;;;13.61;100.00
73101;BME280;61288;53.446;-2.266;2023-07-22T11:17:40;114783.97;;;13.67;100.00
73101;BME280;61288;53.446;-2.266;2023-07-22T11:20:05;114657.38;;;13.71;100.00
73101;BME280;61288;53.446;-2.266;2023-07-22T11:22:31;121494.84;;;13.77;100.00
73101;BME280;61288;53.446;-2.266;2023-07-22T11:24:57;122941.78;;;13.83;100.00
73101;BME280;61288;53.446;-2.266;2023-07-22T11:27:25;122794.94;;;13.89;100.00
73101;BME280;61288;53.446;-2.266;2023-07-22T11:29:51;122828.75;;;13.94;100.00
73101;BME280;61288;53.446;-2.266;2023-07-22T11:32:19;122876.03;;;14.03;100.00
73101;BME280;61288;53.446;-2.266;2023-07-22T11:34:51;122777.91;;;14.08;100.00
73101;BME280;61288;53.446;-2.266;2023-07-22T11:37:20;122796.38;;;14.17;100.00
73101;BME280;61288;53.446;-2.266;2023-07-22T11:39:46;122810.19;;;14.25;100.00
73101;BME280;61288;53.446;-2.266;2023-07-22T11:42:13;122813.50;;;14.34;100.00
73101;BME280;61288;53.446;-2.266;2023-07-22T11:44:38;122139.75;;;14.39;100.00
73101;BME280;61288;53.446;-2.266;2023-07-22T11:47:05;121591.66;;;14.47;100.00
73101;BME280;61288;53.446;-2.266;2023-07-22T11:49:37;120523.66;;;14.54;100.00
73101;BME280;61288;53.446;-2.266;2023-07-22T11:52:07;118576.50;;;14.57;100.00
73101;BME280;61288;53.446;-2.266;2023-07-22T11:54:38;116209.88;;;14.63;100.00
73101;BME280;61288;53.446;-2.266;2023-07-22T11:57:15;114832.31;;;14.68;100.00
73101;BME280;61288;53.446;-2.266;2023-07-22T11:59:46;111997.06;;;14.66;100.00
73101;BME280;61288;53.446;-2.266;2023-07-22T12:04:53;105764.03;;;14.65;100.00
73101;BME280;61288;53.446;-2.266;2023-07-22T12:07:37;104845.91;;;14.63;100.00
73101;BME280;61288;53.446;-2.266;2023-07-22T12:10:05;104149.00;;;14.56;100.00
73101;BME280;61288;53.446;-2.266;2023-07-22T12:12:45;103747.13;;;14.56;100.00
73101;BME280;61288;53.446;-2.266;2023-07-22T12:15:21;103481.03;;;14.53;100.00
73101;BME280;61288;53.446;-2.266;2023-07-22T12:17:53;103394.94;;;14.53;100.00
73101;BME280;61288;53.446;-2.266;2023-07-22T12:20:24;103306.25;;;14.52;100.00
73101;BME280;61288;53.446;-2.266;2023-07-22T12:22:51;103262.75;;;14.52;100.00
73101;BME280;61288;53.446;-2.266;2023-07-22T12:25:17;103123.75;;;14.46;100.00
73101;BME280;61288;53.446;-2.266;2023-07-22T12:27:43;103058.63;;;14.39;100.00
73101;BME280;61288;53.446;-2.266;2023-07-22T12:30:09;103087.38;;;14.38;100.00
73101;BME280;61288;53.446;-2.266;2023-07-22T12:32:35;103037.75;;;14.41;100.00
73101;BME280;61288;53.446;-2.266;2023-07-22T12:35:00;102995.94;;;14.46;100.00
73101;BME280;61288;53.446;-2.266;2023-07-22T12:37:26;103018.53;;;14.45;100.00
73101;BME280;61288;53.446;-2.266;2023-07-22T12:39:51;103002.00;;;14.46;100.00
73101;BME280;61288;53.446;-2.266;2023-07-22T12:42:17;102965.47;;;14.48;100.00
73101;BME280;61288;53.446;-2.266;2023-07-22T12:44:42;102800.31;;;14.46;100.00